Погода Лаврас да Мангабейрана 2 недели

Сеара, Бразилия

16 - 29 июля
  • 16июля
    Сегодня
    +21°
    +34°
    Ясно и безоблачно
    ВремяПогодаТемператураВлажностьДавлениеВетер, м/сВероятность осадков
    00:00Ясно и безоблачно+25°C65 %745 мм5.1 м/с5 %
    03:00Ясно и безоблачно+22°C75 %745 мм4.4 м/с2 %
    06:00Ясно и безоблачно+21°C83 %745 мм3.5 м/с5 %
    09:00Практически безоблачно+26°C53 %746 мм6.7 м/с10 %
    12:00Ясно и безоблачно+30°C29 %745 мм6.2 м/с2 %
    15:00Ясно и безоблачно+34°C26 %743 мм5.3 м/с5 %
    18:00Небольшая облачность+31°C31 %743 мм4.8 м/с5 %
    21:00Облачно с прояснениями+28°C44 %745 мм4.1 м/с5 %
  • 17июля
    Среда
    +21°
    +33°
    Облачно с прояснениями
    ВремяПогодаТемператураВлажностьДавлениеВетер, м/сВероятность осадков
    00:00Практически безоблачно+26°C61 %745 мм5.1 м/с2 %
    03:00Ясно и безоблачно+23°C75 %744 мм4.2 м/с2 %
    06:00Ясно и безоблачно+22°C81 %745 мм4.1 м/с2 %
    09:00Облачно с прояснениями+26°C55 %746 мм6.4 м/с10 %
    12:00Облачно с прояснениями+30°C40 %744 мм6.1 м/с5 %
    15:00Облачно с прояснениями+33°C29 %742 мм4.8 м/с5 %
    18:00Небольшая облачность+30°C33 %742 мм3.1 м/с5 %
    21:00Облачно с прояснениями+29°C46 %744 мм6.8 м/с5 %
  • 18июля
    Четверг
    +22°
    +33°
    Практически безоблачно
    ВремяПогодаТемператураВлажностьДавлениеВетер, м/сВероятность осадков
    00:00Практически безоблачно+26°C59 %745 мм5.2 м/с3 %
    03:00Ясно и безоблачно+23°C70 %744 мм4.9 м/с5 %
    06:00Ясно и безоблачно+22°C77 %745 мм4.8 м/с5 %
    09:00Небольшая облачность+27°C54 %746 мм6.7 м/с5 %
    12:00Небольшая облачность+30°C38 %744 мм5.2 м/с5 %
    15:00Практически безоблачно+33°C28 %742 мм3.6 м/с5 %
    18:00Облачно с прояснениями+31°C32 %742 мм1.7 м/с5 %
    21:00Пасмурно, сплошная облачность+29°C38 %744 мм3.9 м/с3 %
  • 19июля
    Пятница
    +21°
    +35°
    Облачно с прояснениями
    ВремяПогодаТемператураВлажностьДавлениеВетер, м/сВероятность осадков
    00:00Ясно и безоблачно+26°C61 %745 мм4.9 м/с12 %
    03:00Ясно и безоблачно+24°C75 %744 мм4.5 м/с3 %
    06:00Ясно и безоблачно+22°C81 %745 мм4.3 м/с5 %
    09:00Ясно и безоблачно+27°C57 %746 мм5.3 м/с5 %
    12:00Практически безоблачно+32°C33 %744 мм5.4 м/с5 %
    15:00Облачно с прояснениями+33°C31 %742 мм6.2 м/с5 %
    18:00Облачно с прояснениями+32°C36 %743 мм4.6 м/с5 %
    21:00Облачно с прояснениями+28°C50 %745 мм6.5 м/с4 %
  • 20июля
    Суббота
    +21°
    +33°
    Практически безоблачно
    ВремяПогодаТемператураВлажностьДавлениеВетер, м/сВероятность осадков
    00:00Небольшая облачность+25°C69 %745 мм5.0 м/с27 %
    03:00Практически безоблачно+23°C73 %744 мм5.3 м/с4 %
    06:00Ясно и безоблачно+22°C76 %745 мм5.6 м/с5 %
    09:00Ясно и безоблачно+27°C52 %746 мм6.9 м/с5 %
    12:00Облачно с прояснениями+30°C35 %744 мм5.8 м/с4 %
    15:00Практически безоблачно+33°C29 %742 мм5.3 м/с3 %
    18:00Ясно и безоблачно+30°C39 %743 мм6.4 м/с7 %
    21:00Ясно и безоблачно+27°C48 %745 мм6.5 м/с30 %
Мы используем cookies
Соглашаюсь